Terminal Aerodrome Forecast
Issued by NWS

Home | Current Version | Previous Version | Graphics & Text | Print | Product List | Glossary On
Versions: 1 2 3 4 5 6 7 8 9 10 11 12 13 14 15 16
000
FTUS45 KGGW 190000 AAA
TAFSDY
TAF AMD
KSDY 190034Z 1901/1924 VRB03KT P6SM FEW018
      TEMPO 1901/1905 5SM BR BKN020
     FM190600 VRB06KT 5SM BR BKN019
     FM191800 VRB05KT P6SM FEW250
      AMD LTD TO CLD VIS AND WIND=

USA.gov is the U.S. government's official web portal to all federal, state and local government web resources and services.